createdAt,value
2018-09-23T00:02:03.170Z,13.63
2018-09-23T00:05:27.597Z,13.72
2018-09-23T00:08:52.024Z,13.78
2018-09-23T00:12:16.551Z,13.67
2018-09-23T00:15:41.145Z,13.86
2018-09-23T00:19:05.807Z,13.67
2018-09-23T00:22:30.439Z,13.55
2018-09-23T00:25:54.994Z,13.55
2018-09-23T00:29:23.533Z,13.53
2018-09-23T00:32:47.990Z,13.65
2018-09-23T00:36:12.482Z,13.65
2018-09-23T00:39:36.887Z,13.63
2018-09-23T00:43:01.350Z,13.68
2018-09-23T00:46:25.839Z,13.60
2018-09-23T00:49:50.263Z,13.75
2018-09-23T00:53:14.714Z,13.76
2018-09-23T00:56:39.415Z,13.85
2018-09-23T01:00:03.891Z,13.62
2018-09-23T01:03:28.367Z,13.58
2018-09-23T01:06:52.793Z,13.44
2018-09-23T01:10:17.590Z,13.51
2018-09-23T01:13:42.072Z,13.62
2018-09-23T01:17:06.804Z,13.64
2018-09-23T01:20:31.282Z,13.64
2018-09-23T01:23:55.789Z,13.78
2018-09-23T01:27:20.227Z,13.68
2018-09-23T01:30:44.669Z,13.87
2018-09-23T01:34:09.076Z,13.93
2018-09-23T01:37:33.552Z,13.98
2018-09-23T01:40:57.925Z,13.66
2018-09-23T01:44:22.471Z,13.91
2018-09-23T01:47:46.898Z,13.82
2018-09-23T01:51:11.325Z,14.08
2018-09-23T01:54:35.864Z,14.04
2018-09-23T01:58:00.367Z,14.06
2018-09-23T02:01:24.820Z,14.00
2018-09-23T02:04:49.329Z,14.23
2018-09-23T02:08:13.778Z,14.13
2018-09-23T02:11:38.239Z,14.10
2018-09-23T02:15:02.719Z,14.19
2018-09-23T02:18:27.137Z,14.14
2018-09-23T02:21:51.534Z,14.27
2018-09-23T02:25:15.978Z,14.24
2018-09-23T02:28:40.453Z,14.32
2018-09-23T02:32:05.312Z,14.10
2018-09-23T02:35:29.721Z,14.01
2018-09-23T02:38:54.349Z,14.24
2018-09-23T02:42:18.773Z,14.10
2018-09-23T02:45:43.164Z,14.12
2018-09-23T02:49:07.779Z,14.33
2018-09-23T02:52:32.248Z,14.30
2018-09-23T02:55:56.746Z,14.39
2018-09-23T02:59:21.241Z,14.36
2018-09-23T03:02:45.666Z,14.23
2018-09-23T03:06:10.082Z,14.28
2018-09-23T03:09:34.469Z,14.36
2018-09-23T03:12:58.851Z,14.28
2018-09-23T03:16:23.304Z,14.33
2018-09-23T03:19:47.780Z,14.28
2018-09-23T03:23:12.168Z,14.31
2018-09-23T03:26:36.608Z,14.37
2018-09-23T03:30:01.004Z,14.30
2018-09-23T03:33:25.419Z,14.26
2018-09-23T03:36:49.821Z,14.31
2018-09-23T03:40:14.252Z,14.39
2018-09-23T03:43:38.679Z,14.42
2018-09-23T03:47:03.087Z,14.34
2018-09-23T03:50:27.477Z,14.37
2018-09-23T03:53:51.891Z,14.23
2018-09-23T03:57:16.290Z,14.33
2018-09-23T04:00:40.736Z,14.28
2018-09-23T04:04:05.153Z,14.30
2018-09-23T04:07:29.546Z,14.32
2018-09-23T04:10:53.958Z,14.30
2018-09-23T04:14:18.367Z,14.29
2018-09-23T04:17:42.879Z,14.32
2018-09-23T04:21:07.417Z,14.36
2018-09-23T04:24:31.835Z,14.37
2018-09-23T04:27:56.237Z,14.31
2018-09-23T04:31:20.736Z,14.33
2018-09-23T04:34:45.219Z,14.27
2018-09-23T04:38:09.726Z,14.34
2018-09-23T04:41:34.155Z,14.24
2018-09-23T04:44:59.064Z,14.28
2018-09-23T04:48:23.493Z,14.24
2018-09-23T04:51:48.080Z,14.25
2018-09-23T04:55:12.551Z,14.28
2018-09-23T04:58:36.993Z,14.22
2018-09-23T05:02:01.503Z,14.31
2018-09-23T05:05:25.980Z,14.26
2018-09-23T05:08:50.485Z,14.40
2018-09-23T05:12:15.011Z,14.31
2018-09-23T05:15:39.654Z,14.40
2018-09-23T05:19:04.279Z,14.39
2018-09-23T05:22:28.729Z,14.33
2018-09-23T05:25:53.147Z,14.29
2018-09-23T05:29:17.603Z,14.37
2018-09-23T05:32:42.067Z,14.32
2018-09-23T05:36:06.531Z,14.40
2018-09-23T05:39:30.944Z,14.33
2018-09-23T05:42:55.438Z,14.40
2018-09-23T05:46:19.929Z,14.44
2018-09-23T05:49:44.340Z,14.35
2018-09-23T05:53:08.803Z,14.30
2018-09-23T05:56:33.231Z,14.34
2018-09-23T05:59:58.585Z,14.39
2018-09-23T06:03:23.042Z,14.42
2018-09-23T06:06:47.473Z,14.43
2018-09-23T06:10:12.051Z,14.29
2018-09-23T06:13:36.485Z,14.38
2018-09-23T06:17:00.971Z,14.45
2018-09-23T06:20:25.391Z,14.40
2018-09-23T06:23:49.843Z,14.43
2018-09-23T06:27:14.283Z,14.61
2018-09-23T06:30:38.688Z,14.48
2018-09-23T06:34:03.196Z,14.41
2018-09-23T06:37:27.602Z,14.55
2018-09-23T06:40:52.065Z,14.65
2018-09-23T06:44:16.501Z,14.71
2018-09-23T06:47:40.922Z,14.81
2018-09-23T06:51:05.693Z,14.74
2018-09-23T06:54:30.235Z,14.71
2018-09-23T06:57:54.668Z,14.81
2018-09-23T07:01:19.063Z,14.78
2018-09-23T07:04:43.617Z,14.70
2018-09-23T07:08:08.207Z,14.78
2018-09-23T07:11:32.722Z,15.03
2018-09-23T07:14:57.104Z,14.99
2018-09-23T07:18:28.681Z,15.13
2018-09-23T07:21:53.140Z,15.11
2018-09-23T07:25:17.758Z,15.12
2018-09-23T07:28:42.150Z,15.03
2018-09-23T07:32:06.679Z,15.24
2018-09-23T07:35:31.624Z,15.32
2018-09-23T07:38:56.039Z,15.18
2018-09-23T07:42:20.872Z,15.26
2018-09-23T07:45:45.835Z,15.31
2018-09-23T07:49:11.275Z,15.46
2018-09-23T07:52:35.844Z,15.41
2018-09-23T07:56:00.458Z,15.40
2018-09-23T07:59:24.959Z,15.63
2018-09-23T08:02:49.387Z,15.58
2018-09-23T08:06:13.822Z,15.74
2018-09-23T08:09:38.262Z,15.75
2018-09-23T08:13:02.787Z,15.86
2018-09-23T08:16:27.263Z,15.83
2018-09-23T08:19:51.860Z,15.80
2018-09-23T08:23:16.192Z,15.68
2018-09-23T08:26:40.635Z,15.51
2018-09-23T08:30:05.327Z,15.51
2018-09-23T08:33:30.353Z,15.61
2018-09-23T08:36:55.215Z,15.52
2018-09-23T08:40:19.658Z,15.61
2018-09-23T08:43:47.278Z,15.75
2018-09-23T08:47:11.849Z,15.75
2018-09-23T08:50:36.318Z,15.71
2018-09-23T08:54:00.841Z,15.75
2018-09-23T08:57:25.884Z,15.67
2018-09-23T09:00:51.340Z,15.76
2018-09-23T09:04:19.232Z,15.63
2018-09-23T09:07:43.974Z,15.64
2018-09-23T09:11:08.438Z,15.60
2018-09-23T09:14:33.054Z,15.64
2018-09-23T09:17:58.040Z,15.57
2018-09-23T09:21:22.557Z,15.60
2018-09-23T09:24:47.378Z,15.74
2018-09-23T09:28:11.881Z,15.90
2018-09-23T09:31:36.630Z,16.03
2018-09-23T09:35:01.137Z,16.20
2018-09-23T09:38:25.689Z,16.11
2018-09-23T09:41:50.168Z,15.90
2018-09-23T09:45:15.169Z,15.85
2018-09-23T09:48:39.821Z,15.77
2018-09-23T09:52:04.461Z,15.87
2018-09-23T09:55:29.313Z,15.85
2018-09-23T09:58:54.366Z,15.87
2018-09-23T10:02:19.362Z,15.87
2018-09-23T10:05:43.819Z,15.74
2018-09-23T10:09:10.451Z,15.83
2018-09-23T10:12:34.957Z,15.59
2018-09-23T10:15:59.491Z,15.33
2018-09-23T10:19:23.988Z,15.29
2018-09-23T10:22:48.615Z,15.23
2018-09-23T10:26:12.957Z,15.26
2018-09-23T10:29:37.461Z,15.25
2018-09-23T10:33:01.869Z,15.11
2018-09-23T10:36:26.385Z,15.18
2018-09-23T10:39:51.360Z,15.10
2018-09-23T10:43:15.919Z,14.93
2018-09-23T10:46:40.353Z,14.80
2018-09-23T10:50:04.892Z,14.93
2018-09-23T10:53:29.851Z,14.89
2018-09-23T10:56:54.273Z,14.99
2018-09-23T11:00:18.735Z,14.92
2018-09-23T11:03:43.221Z,14.91
2018-09-23T11:07:07.735Z,14.93
2018-09-23T11:10:32.240Z,14.80
2018-09-23T11:13:56.829Z,15.04
2018-09-23T11:17:21.382Z,15.02
2018-09-23T11:20:45.919Z,15.10
2018-09-23T11:24:10.445Z,15.05
2018-09-23T11:27:35.040Z,15.23
2018-09-23T11:30:59.661Z,15.27
2018-09-23T11:34:24.193Z,15.43
2018-09-23T11:37:48.636Z,15.34
2018-09-23T11:41:13.133Z,15.24
2018-09-23T11:44:37.599Z,15.31
2018-09-23T11:48:02.166Z,15.05
2018-09-23T11:51:26.801Z,14.50
2018-09-23T11:54:51.333Z,14.62
2018-09-23T11:58:15.822Z,14.61
2018-09-23T12:01:40.585Z,14.48
2018-09-23T12:05:04.953Z,14.41
2018-09-23T12:08:29.398Z,14.53
2018-09-23T12:11:53.944Z,14.26
2018-09-23T12:15:18.421Z,14.29
2018-09-23T12:18:43.576Z,14.28
2018-09-23T12:22:08.393Z,14.04
2018-09-23T12:25:32.925Z,14.14
2018-09-23T12:28:57.500Z,14.04
2018-09-23T12:32:22.100Z,13.76
2018-09-23T12:35:46.627Z,13.95
2018-09-23T12:39:12.196Z,14.02
2018-09-23T12:42:36.743Z,13.97
2018-09-23T12:46:01.286Z,14.12
2018-09-23T12:49:26.777Z,13.92
2018-09-23T12:52:51.675Z,14.03
2018-09-23T12:56:17.132Z,13.93
2018-09-23T12:59:41.975Z,14.08
2018-09-23T13:03:06.891Z,14.01
2018-09-23T13:06:31.330Z,14.14
2018-09-23T13:09:55.878Z,14.18
2018-09-23T13:13:20.402Z,14.20
2018-09-23T13:16:44.857Z,14.11
2018-09-23T13:20:09.384Z,13.92
2018-09-23T13:23:33.898Z,14.01
2018-09-23T13:26:58.573Z,14.01
2018-09-23T13:30:23.254Z,14.20
2018-09-23T13:33:47.695Z,14.18
2018-09-23T13:37:12.144Z,14.04
2018-09-23T13:40:36.580Z,14.13
2018-09-23T13:44:01.048Z,14.37
2018-09-23T13:47:25.522Z,14.26
2018-09-23T13:50:54.308Z,14.04
2018-09-23T14:02:12.948Z,13.47
2018-09-23T14:05:37.356Z,13.65
2018-09-23T14:09:02.670Z,13.80
2018-09-23T14:12:27.153Z,14.02
2018-09-23T14:15:52.342Z,14.21
2018-09-23T14:19:16.858Z,14.28
2018-09-23T14:22:41.261Z,14.29
2018-09-23T14:26:05.700Z,14.15
2018-09-23T14:29:30.136Z,14.10
2018-09-23T14:32:54.537Z,13.84
2018-09-23T14:36:18.941Z,13.61
2018-09-23T14:39:43.338Z,13.85
2018-09-23T14:43:07.790Z,13.78
2018-09-23T14:46:32.198Z,13.53
2018-09-23T14:49:56.631Z,13.58
2018-09-23T14:53:21.133Z,13.45
2018-09-23T14:56:45.736Z,13.55
2018-09-23T15:00:10.442Z,13.44
2018-09-23T15:03:34.960Z,13.56
2018-09-23T15:06:59.908Z,13.43
2018-09-23T15:10:24.379Z,13.54
2018-09-23T15:13:49.076Z,13.51
2018-09-23T15:17:17.473Z,13.33
2018-09-23T15:20:42.312Z,13.60
2018-09-23T15:24:10.354Z,13.38
2018-09-23T15:27:35.456Z,13.52
2018-09-23T15:31:00.357Z,13.29
2018-09-23T15:34:27.309Z,13.21
2018-09-23T15:37:52.338Z,13.17
2018-09-23T15:41:17.760Z,12.95
2018-09-23T15:44:42.622Z,12.88
2018-09-23T15:48:11.217Z,12.95
2018-09-23T15:51:35.868Z,12.77
2018-09-23T15:55:00.722Z,12.81
2018-09-23T15:58:25.347Z,12.82
2018-09-23T16:01:51.313Z,12.85
2018-09-23T16:05:16.960Z,12.70
2018-09-23T16:08:42.603Z,12.78
2018-09-23T16:12:07.163Z,12.87
2018-09-23T16:15:32.383Z,13.01
2018-09-23T16:18:56.853Z,12.81
2018-09-23T16:22:21.281Z,12.77
2018-09-23T16:25:46.611Z,12.49
2018-09-23T16:29:11.042Z,12.74
2018-09-23T16:32:35.550Z,12.66
2018-09-23T16:36:01.012Z,12.53
2018-09-23T16:39:25.486Z,12.42
2018-09-23T16:42:50.004Z,12.51
2018-09-23T16:46:14.514Z,12.50
2018-09-23T16:49:38.992Z,12.49
2018-09-23T16:53:03.465Z,12.53
2018-09-23T16:56:27.903Z,12.50
2018-09-23T16:59:52.529Z,12.55
2018-09-23T17:03:19.202Z,12.47
2018-09-23T17:06:43.823Z,12.58
2018-09-23T17:10:08.943Z,12.69
2018-09-23T17:13:33.953Z,12.64
2018-09-23T17:16:58.490Z,12.58
2018-09-23T17:20:22.934Z,12.48
2018-09-23T17:23:47.438Z,12.53
2018-09-23T17:27:11.914Z,12.52
2018-09-23T17:30:36.394Z,12.41
2018-09-23T17:34:00.896Z,12.51
2018-09-23T17:37:26.042Z,12.53
2018-09-23T17:40:51.372Z,12.48
2018-09-23T17:44:15.852Z,12.58
2018-09-23T17:47:40.287Z,12.41
2018-09-23T17:51:04.805Z,12.57
2018-09-23T17:54:29.439Z,12.47
2018-09-23T17:57:53.843Z,12.51
2018-09-23T18:01:18.289Z,12.49
2018-09-23T18:04:42.783Z,12.59
2018-09-23T18:08:07.261Z,12.56
2018-09-23T18:11:31.707Z,12.36
2018-09-23T18:14:56.109Z,12.49
2018-09-23T18:18:20.667Z,12.51
2018-09-23T18:21:45.417Z,12.45
2018-09-23T18:25:10.095Z,12.49
2018-09-23T18:28:34.986Z,12.40
2018-09-23T18:31:59.582Z,12.30
2018-09-23T18:35:24.115Z,12.35
2018-09-23T18:38:48.795Z,12.25
2018-09-23T18:42:13.448Z,12.19
2018-09-23T18:45:38.013Z,12.29
2018-09-23T18:49:02.802Z,12.10
2018-09-23T18:52:27.391Z,12.10
2018-09-23T18:55:53.145Z,12.09
2018-09-23T18:59:17.782Z,11.97
2018-09-23T19:02:42.227Z,12.15
2018-09-23T19:06:06.654Z,12.08
2018-09-23T19:09:31.147Z,12.14
2018-09-23T19:13:00.987Z,12.12
2018-09-23T19:16:32.663Z,12.10
2018-09-23T19:20:02.544Z,12.04
2018-09-23T19:23:27.041Z,12.12
2018-09-23T19:26:51.718Z,12.01
2018-09-23T19:30:16.350Z,11.93
2018-09-23T19:33:40.812Z,11.84
2018-09-23T19:37:05.392Z,11.97
2018-09-23T19:40:30.276Z,11.71
2018-09-23T19:43:54.970Z,11.77
2018-09-23T19:47:19.514Z,11.69
2018-09-23T19:50:44.280Z,11.96
2018-09-23T19:57:23.506Z,11.89
2018-09-23T20:00:48.210Z,11.95
2018-09-23T20:04:19.426Z,12.09
2018-09-23T20:07:43.996Z,11.65
2018-09-23T20:11:08.621Z,11.82
2018-09-23T20:14:34.491Z,11.73
2018-09-23T20:17:58.991Z,12.05
2018-09-23T20:21:23.437Z,12.12
2018-09-23T20:24:47.870Z,12.06
2018-09-23T20:28:12.353Z,11.99
2018-09-23T20:31:36.754Z,12.05
2018-09-23T20:35:01.184Z,12.00
2018-09-23T20:38:25.691Z,12.12
2018-09-23T20:41:50.135Z,12.08
2018-09-23T20:45:14.613Z,12.23
2018-09-23T20:48:39.042Z,12.16
2018-09-23T20:52:03.477Z,11.97
2018-09-23T20:55:27.909Z,11.97
2018-09-23T20:58:52.410Z,11.92
2018-09-23T21:02:16.969Z,11.79
2018-09-23T21:05:41.508Z,11.87
2018-09-23T21:09:09.446Z,11.86
2018-09-23T21:12:33.986Z,11.89
2018-09-23T21:15:58.562Z,11.86
2018-09-23T21:19:23.042Z,12.04
2018-09-23T21:22:47.501Z,11.98
2018-09-23T21:26:12.172Z,11.71
2018-09-23T21:29:36.729Z,11.85
2018-09-23T21:33:01.307Z,11.74
2018-09-23T21:36:25.720Z,11.70
2018-09-23T21:39:50.176Z,11.70
2018-09-23T21:43:14.738Z,11.60
2018-09-23T21:46:39.207Z,11.51
2018-09-23T21:50:03.665Z,11.30
2018-09-23T21:53:28.061Z,11.34
2018-09-23T21:56:52.499Z,11.25
2018-09-23T22:00:16.987Z,11.39
2018-09-23T22:03:41.375Z,11.21
2018-09-23T22:07:05.912Z,11.35
2018-09-23T22:10:30.364Z,11.14
2018-09-23T22:13:54.755Z,11.37
2018-09-23T22:17:19.170Z,11.32
2018-09-23T22:20:43.556Z,11.40
2018-09-23T22:24:08.199Z,11.32
2018-09-23T22:27:32.835Z,11.26
2018-09-23T22:30:57.280Z,11.19
2018-09-23T22:34:21.661Z,11.29
2018-09-23T22:37:46.131Z,10.98
2018-09-23T22:41:10.578Z,11.00
2018-09-23T22:44:35.004Z,11.06
2018-09-23T22:47:59.393Z,11.04
2018-09-23T22:51:23.792Z,11.01
2018-09-23T22:54:48.307Z,10.94
2018-09-23T22:58:12.742Z,10.98
2018-09-23T23:01:37.162Z,11.09
2018-09-23T23:05:01.577Z,10.83
2018-09-23T23:08:25.961Z,10.83
2018-09-23T23:11:50.484Z,10.89
2018-09-23T23:15:15.040Z,10.81
2018-09-23T23:18:39.492Z,10.91
2018-09-23T23:22:04.093Z,10.96
2018-09-23T23:25:28.560Z,10.80
2018-09-23T23:28:53.079Z,10.69
2018-09-23T23:32:17.724Z,10.65
2018-09-23T23:35:42.214Z,10.84
2018-09-23T23:39:09.456Z,10.73
2018-09-23T23:42:33.891Z,10.76
2018-09-23T23:45:58.353Z,10.55
2018-09-23T23:49:22.797Z,10.72
2018-09-23T23:52:59.712Z,10.76
2018-09-23T23:56:24.241Z,10.76
2018-09-23T23:59:48.799Z,10.62
